createdAt,value
2019-06-20T00:00:23.805Z,1012.8
2019-06-20T00:01:22.822Z,1012.83
2019-06-20T00:02:43.079Z,1012.78
2019-06-20T00:03:43.233Z,1012.73
2019-06-20T00:04:23.267Z,1012.73
2019-06-20T00:05:23.389Z,1012.74
2019-06-20T00:06:23.542Z,1012.68
2019-06-20T00:07:44.000Z,1012.81
2019-06-20T00:08:44.249Z,1012.76
2019-06-20T00:09:24.431Z,1012.72
2019-06-20T00:10:24.539Z,1012.72
2019-06-20T00:11:24.583Z,1012.77
2019-06-20T00:12:59.400Z,1012.69
2019-06-20T00:13:44.931Z,1012.71
2019-06-20T00:17:45.113Z,1012.67
2019-06-20T00:22:45.629Z,1012.8
2019-06-20T00:23:45.754Z,1012.8
2019-06-20T00:26:25.968Z,1012.75
2019-06-20T00:27:46.016Z,1012.77
2019-06-20T00:28:46.055Z,1012.72
2019-06-20T00:30:27.487Z,1012.69
2019-06-20T00:32:47.404Z,1012.62
2019-06-20T00:33:47.536Z,1012.64
2019-06-20T00:34:37.707Z,1012.63
2019-06-20T00:35:37.810Z,1012.64
2019-06-20T00:36:38.081Z,1012.53
2019-06-20T00:37:58.881Z,1012.6
2019-06-20T00:39:38.307Z,1012.53
2019-06-20T00:40:38.522Z,1012.57
2019-06-20T00:41:38.548Z,1012.55
2019-06-20T00:44:08.727Z,1012.54
2019-06-20T00:45:18.904Z,1012.58
2019-06-20T00:46:19.087Z,1012.59
2019-06-20T00:47:39.154Z,1012.63
2019-06-20T00:48:49.358Z,1012.57
2019-06-20T00:49:39.515Z,1012.6
2019-06-20T00:50:39.448Z,1012.53
2019-06-20T00:53:39.782Z,1012.5
2019-06-20T00:54:39.868Z,1012.48
2019-06-20T00:55:40.129Z,1012.47
2019-06-20T00:59:20.494Z,1012.4
2019-06-20T01:00:30.062Z,1012.39
2019-06-20T01:01:30.182Z,1012.33
2019-06-20T01:02:39.874Z,1012.41
2019-06-20T01:03:50.093Z,1012.38
2019-06-20T01:04:30.167Z,1012.37
2019-06-20T01:05:20.246Z,1012.34
2019-06-20T01:06:20.528Z,1012.38
2019-06-20T01:07:42.685Z,1012.42
2019-06-20T01:08:52.677Z,1012.4
2019-06-20T01:09:42.843Z,1012.44
2019-06-20T01:10:42.879Z,1012.43
2019-06-20T01:12:03.355Z,1012.47
2019-06-20T01:13:03.462Z,1012.46
2019-06-20T01:14:03.818Z,1012.46
2019-06-20T01:15:23.810Z,1012.45
2019-06-20T01:16:24.082Z,1012.44
2019-06-20T01:17:44.408Z,1012.41
2019-06-20T01:18:54.602Z,1012.44
2019-06-20T01:19:44.760Z,1012.4
2019-06-20T01:20:44.926Z,1012.38
2019-06-20T01:22:04.920Z,1012.38
2019-06-20T01:23:24.932Z,1012.42
2019-06-20T01:24:14.949Z,1012.4
2019-06-20T01:25:25.217Z,1012.43
2019-06-20T01:26:15.235Z,1012.38
2019-06-20T01:27:45.512Z,1012.42
2019-06-20T01:28:55.737Z,1012.46
2019-06-20T01:31:58.390Z,1012.33
2019-06-20T01:33:18.637Z,1012.32
2019-06-20T01:34:18.722Z,1012.3
2019-06-20T01:35:28.927Z,1012.37
2019-06-20T01:36:29.075Z,1012.36
2019-06-20T01:37:49.272Z,1012.36
2019-06-20T01:38:49.419Z,1012.33
2019-06-20T01:39:29.587Z,1012.42
2019-06-20T01:40:29.880Z,1012.33
2019-06-20T01:41:30.033Z,1012.29
2019-06-20T01:42:50.233Z,1012.19
2019-06-20T01:44:00.273Z,1012.25
2019-06-20T01:45:00.281Z,1012.25
2019-06-20T01:46:00.315Z,1012.21
2019-06-20T01:47:00.529Z,1012.16
2019-06-20T01:48:20.438Z,1012.21
2019-06-20T01:49:20.606Z,1012.24
2019-06-20T01:50:30.751Z,1012.19
2019-06-20T01:51:30.988Z,1012.18
2019-06-20T01:52:51.144Z,1012.16
2019-06-20T01:54:01.462Z,1012.23
2019-06-20T01:55:01.642Z,1012.23
2019-06-20T01:56:01.861Z,1012.18
2019-06-20T01:57:02.147Z,1012.15
2019-06-20T01:58:22.288Z,1012.1
2019-06-20T01:59:12.469Z,1012.09
2019-06-20T02:00:12.637Z,1012.1
2019-06-20T02:01:23.343Z,1012.09
2019-06-20T02:02:43.368Z,1012.02
2019-06-20T02:03:53.425Z,1012.05
2019-06-20T02:05:03.504Z,1012.05
2019-06-20T02:06:03.660Z,1012.08
2019-06-20T02:07:03.950Z,1012.07
2019-06-20T02:08:23.966Z,1012.12
2019-06-20T02:09:14.122Z,1012.08
2019-06-20T02:10:24.294Z,1012.07
2019-06-20T02:11:24.400Z,1012.03
2019-06-20T02:12:44.591Z,1012.07
2019-06-20T02:14:06.715Z,1012.07
2019-06-20T02:15:04.736Z,1012.08
2019-06-20T02:16:04.788Z,1012.07
2019-06-20T02:17:05.084Z,1012.04
2019-06-20T02:18:25.528Z,1012.08
2019-06-20T02:19:15.031Z,1012.09
2019-06-20T02:20:25.224Z,1012.09
2019-06-20T02:21:25.408Z,1012.03
2019-06-20T02:22:45.752Z,1012.03
2019-06-20T02:26:56.007Z,1012.06
2019-06-20T02:28:16.340Z,1012.06
2019-06-20T02:29:26.546Z,1012.11
2019-06-20T02:30:27.371Z,1012.07
2019-06-20T02:31:16.922Z,1012.09
2019-06-20T02:32:47.277Z,1012.14
2019-06-20T02:33:57.496Z,1012.14
2019-06-20T02:34:57.633Z,1012.12
2019-06-20T02:38:27.833Z,1012.11
2019-06-20T02:39:17.896Z,1012.08
2019-06-20T02:40:28.212Z,1012.1
2019-06-20T02:41:28.396Z,1012.13
2019-06-20T02:42:48.450Z,1012.17
2019-06-20T02:43:58.489Z,1012.14
2019-06-20T02:44:58.510Z,1012.08
2019-06-20T02:45:58.677Z,1012.06
2019-06-20T02:46:58.890Z,1012.13
2019-06-20T02:48:19.068Z,1012.11
2019-06-20T02:49:19.232Z,1012.13
2019-06-20T02:50:29.378Z,1012.13
2019-06-20T02:51:29.538Z,1012.16
2019-06-20T02:52:49.608Z,1012.17
2019-06-20T02:53:59.719Z,1012.05
2019-06-20T02:54:59.918Z,1012.12
2019-06-20T02:56:00.081Z,1011.99
2019-06-20T02:57:20.385Z,1012.08
2019-06-20T02:58:30.642Z,1011.97
2019-06-20T02:59:30.661Z,1012.12
2019-06-20T03:00:30.833Z,1012.08
2019-06-20T03:01:30.828Z,1012.11
2019-06-20T03:03:01.072Z,1012.1
2019-06-20T03:04:00.960Z,1012.1
2019-06-20T03:05:01.037Z,1012.04
2019-06-20T03:06:31.400Z,1012.06
2019-06-20T03:08:32.443Z,1012.04
2019-06-20T03:09:31.641Z,1012.04
2019-06-20T03:10:31.685Z,1012.06
2019-06-20T03:12:01.817Z,1012.06
2019-06-20T03:13:02.068Z,1012.02
2019-06-20T03:14:02.275Z,1012.05
2019-06-20T03:15:02.299Z,1012.05
2019-06-20T03:16:32.391Z,1012.09
2019-06-20T03:17:12.529Z,1012.07
2019-06-20T03:18:22.551Z,1012.17
2019-06-20T03:19:42.620Z,1012.12
2019-06-20T03:21:32.992Z,1012.1
2019-06-20T03:22:12.996Z,1012.12
2019-06-20T03:23:23.096Z,1012.08
2019-06-20T03:24:43.393Z,1012.12
2019-06-20T03:26:33.738Z,1012.13
2019-06-20T03:27:13.843Z,1012.06
2019-06-20T03:28:23.922Z,1012.11
2019-06-20T03:29:44.179Z,1012.13
2019-06-20T03:31:34.467Z,1012.04
2019-06-20T03:32:14.700Z,1012.02
2019-06-20T03:33:25.030Z,1012.07
2019-06-20T03:34:35.061Z,1012.1
2019-06-20T03:35:35.247Z,1012.07
2019-06-20T03:37:05.546Z,1012.12
2019-06-20T03:38:05.594Z,1012.11
2019-06-20T03:39:05.673Z,1012.11
2019-06-20T03:40:05.864Z,1012.08
2019-06-20T03:41:35.985Z,1012.1
2019-06-20T03:42:15.986Z,1012.15
2019-06-20T03:43:36.075Z,1012.12
2019-06-20T03:44:36.216Z,1012.19
2019-06-20T03:45:36.349Z,1012.17
2019-06-20T03:46:56.507Z,1012.19
2019-06-20T03:48:06.712Z,1012.2
2019-06-20T03:49:06.871Z,1012.13
2019-06-20T03:50:07.087Z,1012.18
2019-06-20T03:51:27.264Z,1012.15
2019-06-20T03:52:17.430Z,1012.13
2019-06-20T03:53:37.519Z,1012.16
2019-06-20T03:54:37.815Z,1012.11
2019-06-20T03:55:37.865Z,1012.15
2019-06-20T03:56:58.183Z,1012.17
2019-06-20T03:57:58.396Z,1012.13
2019-06-20T03:58:58.559Z,1012.22
2019-06-20T03:59:58.765Z,1012.18
2019-06-20T04:01:23.424Z,1012.2
2019-06-20T04:03:43.940Z,1012.23
2019-06-20T04:04:43.930Z,1012.23
2019-06-20T04:06:24.144Z,1012.24
2019-06-20T04:07:14.171Z,1012.26
2019-06-20T04:08:24.168Z,1012.26
2019-06-20T04:09:34.188Z,1012.19
2019-06-20T04:10:34.223Z,1012.26
2019-06-20T04:11:54.249Z,1012.3
2019-06-20T04:13:04.427Z,1012.25
2019-06-20T04:14:04.627Z,1012.24
2019-06-20T04:15:17.730Z,1012.25
2019-06-20T04:16:25.163Z,1012.21
2019-06-20T04:17:15.119Z,1012.18
2019-06-20T04:18:35.139Z,1012.23
2019-06-20T04:19:35.334Z,1012.26
2019-06-20T04:20:35.551Z,1012.22
2019-06-20T04:21:55.771Z,1012.25
2019-06-20T04:23:05.941Z,1012.25
2019-06-20T04:24:06.162Z,1012.27
2019-06-20T04:25:06.218Z,1012.27
2019-06-20T04:26:26.490Z,1012.3
2019-06-20T04:27:26.352Z,1012.24
2019-06-20T04:28:36.387Z,1012.3
2019-06-20T04:29:36.538Z,1012.37
2019-06-20T04:30:36.761Z,1012.38
2019-06-20T04:31:56.791Z,1012.4
2019-06-20T04:33:06.822Z,1012.37
2019-06-20T04:34:06.924Z,1012.37
2019-06-20T04:35:07.235Z,1012.38
2019-06-20T04:36:37.058Z,1012.37
2019-06-20T04:38:37.686Z,1012.38
2019-06-20T04:39:38.141Z,1012.34
2019-06-20T04:40:38.134Z,1012.32
2019-06-20T04:42:08.332Z,1012.41
2019-06-20T04:43:08.306Z,1012.34
2019-06-20T04:44:08.260Z,1012.41
2019-06-20T04:45:08.336Z,1012.4
2019-06-20T04:46:38.640Z,1012.4
2019-06-20T04:48:38.920Z,1012.37
2019-06-20T04:49:39.032Z,1012.46
2019-06-20T04:50:39.086Z,1012.42
2019-06-20T04:52:09.270Z,1012.4
2019-06-20T04:54:39.656Z,1012.46
2019-06-20T04:55:39.858Z,1012.37
2019-06-20T04:57:10.209Z,1012.4
2019-06-20T04:58:10.340Z,1012.4
2019-06-20T04:59:10.385Z,1012.44
2019-06-20T05:00:10.498Z,1012.44
2019-06-20T05:01:44.881Z,1012.32
2019-06-20T05:02:24.874Z,1012.42
2019-06-20T05:03:35.250Z,1012.4
2019-06-20T05:04:35.649Z,1012.43
2019-06-20T05:05:35.526Z,1012.48
2019-06-20T05:07:06.014Z,1012.39
2019-06-20T05:08:16.217Z,1012.46
2019-06-20T05:12:26.882Z,1012.42
2019-06-20T05:13:36.971Z,1012.34
2019-06-20T05:14:37.012Z,1012.31
2019-06-20T05:15:51.303Z,1012.38
2019-06-20T05:17:07.392Z,1012.41
2019-06-20T05:18:07.180Z,1012.35
2019-06-20T05:19:07.276Z,1012.35
2019-06-20T05:20:07.332Z,1012.32
2019-06-20T05:21:37.471Z,1012.34
2019-06-20T05:25:37.906Z,1012.44
2019-06-20T05:27:08.194Z,1012.42
2019-06-20T05:30:38.562Z,1012.42
2019-06-20T05:32:08.730Z,1012.48
2019-06-20T05:33:08.798Z,1012.5
2019-06-20T05:37:09.102Z,1012.48
2019-06-20T05:38:09.214Z,1012.52
2019-06-20T05:42:09.786Z,1012.54
2019-06-20T05:43:10.050Z,1012.48
2019-06-20T05:44:10.127Z,1012.51
2019-06-20T05:45:10.212Z,1012.52
2019-06-20T05:46:40.508Z,1012.52
2019-06-20T05:48:40.785Z,1012.53
2019-06-20T05:49:41.283Z,1012.52
2019-06-20T05:50:41.089Z,1012.62
2019-06-20T05:52:11.156Z,1012.62
2019-06-20T05:53:11.304Z,1012.56
2019-06-20T05:54:11.458Z,1012.6
2019-06-20T05:55:11.667Z,1012.62
2019-06-20T05:56:41.917Z,1012.6
2019-06-20T05:58:42.197Z,1012.58
2019-06-20T05:59:42.355Z,1012.57
2019-06-20T06:00:42.859Z,1012.67
2019-06-20T06:02:13.223Z,1012.69
2019-06-20T06:03:13.805Z,1012.69
2019-06-20T06:04:13.446Z,1012.66
2019-06-20T06:05:13.510Z,1012.69
2019-06-20T06:06:43.941Z,1012.63
2019-06-20T06:09:34.071Z,1012.67
2019-06-20T06:11:14.301Z,1012.62
2019-06-20T06:12:14.547Z,1012.65
2019-06-20T06:13:14.769Z,1012.67
2019-06-20T06:14:15.035Z,1012.67
2019-06-20T06:15:15.088Z,1012.64
2019-06-20T06:16:45.809Z,1012.6
2019-06-20T06:18:35.413Z,1012.63
2019-06-20T06:19:35.516Z,1012.58
2019-06-20T06:21:05.626Z,1012.56
2019-06-20T06:22:15.707Z,1012.58
2019-06-20T06:23:15.961Z,1012.55
2019-06-20T06:24:16.145Z,1012.56
2019-06-20T06:25:16.254Z,1012.64
2019-06-20T06:27:36.626Z,1012.57
2019-06-20T06:28:46.682Z,1012.59
2019-06-20T06:29:46.685Z,1012.6
2019-06-20T06:31:19.172Z,1012.62
2019-06-20T06:32:20.133Z,1012.55
2019-06-20T06:33:19.475Z,1012.6
2019-06-20T06:34:21.938Z,1012.63
2019-06-20T06:35:19.820Z,1012.57
2019-06-20T06:36:50.109Z,1012.59
2019-06-20T06:39:20.875Z,1012.54
2019-06-20T06:40:20.851Z,1012.63
2019-06-20T06:41:51.087Z,1012.62
2019-06-20T06:46:11.948Z,1012.68
2019-06-20T06:47:12.210Z,1012.61
2019-06-20T06:48:22.345Z,1012.57
2019-06-20T06:49:22.372Z,1012.58
2019-06-20T06:50:22.533Z,1012.59
2019-06-20T06:51:52.562Z,1012.61
2019-06-20T06:52:32.739Z,1012.65
2019-06-20T06:53:33.002Z,1012.63
2019-06-20T06:54:33.006Z,1012.58
2019-06-20T06:57:13.558Z,1012.58
2019-06-20T06:58:23.587Z,1012.59
2019-06-20T06:59:23.763Z,1012.58
2019-06-20T07:00:24.839Z,1012.55
2019-06-20T07:01:54.855Z,1012.57
2019-06-20T07:03:45.346Z,1012.56
2019-06-20T07:04:45.276Z,1012.62
2019-06-20T07:05:45.562Z,1012.63
2019-06-20T07:06:45.446Z,1012.58
2019-06-20T07:07:45.815Z,1012.56
2019-06-20T07:08:45.954Z,1012.62
2019-06-20T07:09:45.665Z,1012.59
2019-06-20T07:11:15.799Z,1012.53
2019-06-20T07:12:15.886Z,1012.49
2019-06-20T07:13:25.989Z,1012.61
2019-06-20T07:14:26.202Z,1012.53
2019-06-20T07:15:26.213Z,1012.55
2019-06-20T07:17:00.038Z,1012.51
2019-06-20T07:18:46.617Z,1012.58
2019-06-20T07:19:46.831Z,1012.54
2019-06-20T07:21:16.906Z,1012.53
2019-06-20T07:22:16.965Z,1012.56
2019-06-20T07:23:27.026Z,1012.48
2019-06-20T07:24:27.035Z,1012.49
2019-06-20T07:25:27.054Z,1012.48
2019-06-20T07:26:57.473Z,1012.57
2019-06-20T07:28:47.588Z,1012.54
2019-06-20T07:29:47.589Z,1012.51
2019-06-20T07:31:17.753Z,1012.51
2019-06-20T07:32:18.028Z,1012.52
2019-06-20T07:33:28.144Z,1012.53
2019-06-20T07:34:28.312Z,1012.54
2019-06-20T07:35:28.326Z,1012.57
2019-06-20T07:36:58.310Z,1012.57
2019-06-20T07:43:28.560Z,1012.57
2019-06-20T07:44:28.640Z,1012.54
2019-06-20T07:45:28.733Z,1012.52
2019-06-20T07:46:58.999Z,1012.63
2019-06-20T07:53:01.198Z,1012.51
2019-06-20T07:56:00.088Z,1012.57
2019-06-20T07:57:00.227Z,1012.56
2019-06-20T08:01:14.675Z,1012.62
2019-06-20T08:02:14.743Z,1012.59
2019-06-20T08:03:25.053Z,1012.61
2019-06-20T08:04:25.317Z,1012.57
2019-06-20T08:05:55.269Z,1012.6
2019-06-20T08:07:05.735Z,1012.58
2019-06-20T08:07:45.889Z,1012.53
2019-06-20T08:08:47.323Z,1012.48
2019-06-20T08:09:46.498Z,1012.54
2019-06-20T08:11:16.759Z,1012.52
2019-06-20T08:12:16.701Z,1012.58
2019-06-20T08:13:26.829Z,1012.61
2019-06-20T08:14:26.814Z,1012.53
2019-06-20T08:16:06.841Z,1012.57
2019-06-20T08:17:06.897Z,1012.53
2019-06-20T08:17:46.861Z,1012.54
2019-06-20T08:18:46.876Z,1012.5
2019-06-20T08:19:47.086Z,1012.52
2019-06-20T08:21:17.354Z,1012.59
2019-06-20T08:22:17.453Z,1012.53
2019-06-20T08:23:27.693Z,1012.56
2019-06-20T08:24:28.082Z,1012.51
2019-06-20T08:25:59.146Z,1012.5
2019-06-20T08:26:58.698Z,1012.58
2019-06-20T08:31:12.384Z,1012.57
2019-06-20T08:32:12.532Z,1012.56
2019-06-20T08:33:22.607Z,1012.56
2019-06-20T08:35:12.813Z,1012.54
2019-06-20T08:36:12.901Z,1012.53
2019-06-20T08:36:53.099Z,1012.51
2019-06-20T08:37:53.230Z,1012.48
2019-06-20T08:38:53.450Z,1012.51
2019-06-20T08:40:23.389Z,1012.49
2019-06-20T08:41:23.533Z,1012.55
2019-06-20T08:42:23.671Z,1012.5
2019-06-20T08:43:23.873Z,1012.49
2019-06-20T08:44:55.381Z,1012.51
2019-06-20T08:46:06.171Z,1012.54
2019-06-20T08:46:44.462Z,1012.5
2019-06-20T08:47:44.726Z,1012.53
2019-06-20T08:49:05.761Z,1012.54
2019-06-20T08:50:15.440Z,1012.59
2019-06-20T08:51:15.380Z,1012.59
2019-06-20T08:52:25.528Z,1012.56
2019-06-20T08:53:25.803Z,1012.61
2019-06-20T08:54:56.577Z,1012.62
2019-06-20T08:56:06.076Z,1012.6
2019-06-20T08:56:46.210Z,1012.61
2019-06-20T08:57:46.600Z,1012.67
2019-06-20T08:58:46.675Z,1012.65
2019-06-20T09:00:16.868Z,1012.66
2019-06-20T09:01:17.707Z,1012.66
2019-06-20T09:02:27.763Z,1012.56
2019-06-20T09:03:37.915Z,1012.66
2019-06-20T09:05:08.325Z,1012.64
2019-06-20T09:06:08.234Z,1012.67
2019-06-20T09:06:49.955Z,1012.64
2019-06-20T09:08:10.935Z,1012.65
2019-06-20T09:09:38.482Z,1012.61
2019-06-20T09:10:38.516Z,1012.62
2019-06-20T09:11:18.648Z,1012.63
2019-06-20T09:12:28.739Z,1012.63
2019-06-20T09:13:28.844Z,1012.72
2019-06-20T09:14:59.215Z,1012.64
2019-06-20T09:15:59.157Z,1012.63
2019-06-20T09:16:39.085Z,1012.68
2019-06-20T09:17:39.197Z,1012.62
2019-06-20T09:18:39.354Z,1012.61
2019-06-20T09:20:09.563Z,1012.67
2019-06-20T09:21:09.828Z,1012.64
2019-06-20T09:21:49.910Z,1012.69
2019-06-20T09:22:49.994Z,1012.63
2019-06-20T09:23:52.342Z,1012.58
2019-06-20T09:25:20.546Z,1012.62
2019-06-20T09:26:20.600Z,1012.66
2019-06-20T09:27:30.565Z,1012.64
2019-06-20T09:28:40.587Z,1012.65
2019-06-20T09:30:10.891Z,1012.66
2019-06-20T09:31:15.223Z,1012.63
2019-06-20T09:32:15.419Z,1012.62
2019-06-20T09:33:35.783Z,1012.6
2019-06-20T09:35:05.971Z,1012.68
2019-06-20T09:36:06.228Z,1012.62
2019-06-20T09:36:46.351Z,1012.67
2019-06-20T09:38:06.502Z,1012.64
2019-06-20T09:38:46.576Z,1012.6
2019-06-20T09:40:16.801Z,1012.65
2019-06-20T09:41:16.699Z,1012.6
2019-06-20T09:42:27.025Z,1012.63
2019-06-20T09:43:27.908Z,1012.68
2019-06-20T09:45:07.127Z,1012.65
2019-06-20T09:45:47.143Z,1012.7
2019-06-20T09:46:47.282Z,1012.67
2019-06-20T09:47:47.284Z,1012.73
2019-06-20T09:49:37.450Z,1012.76
2019-06-20T09:51:38.368Z,1012.76
2019-06-20T09:52:37.939Z,1012.7
2019-06-20T09:53:38.114Z,1012.68
2019-06-20T09:55:08.627Z,1012.7
2019-06-20T09:56:08.919Z,1012.67
2019-06-20T10:00:24.238Z,1012.74
2019-06-20T10:09:24.129Z,1012.67
2019-06-20T10:10:24.300Z,1012.67
2019-06-20T10:11:34.299Z,1012.6
2019-06-20T10:12:34.395Z,1012.61
2019-06-20T10:13:34.547Z,1012.53
2019-06-20T10:15:04.652Z,1012.65
2019-06-20T10:16:04.869Z,1012.66
2019-06-20T10:17:04.824Z,1012.68
2019-06-20T10:17:55.005Z,1012.65
2019-06-20T10:19:35.031Z,1012.67
2019-06-20T10:20:25.234Z,1012.68
2019-06-20T10:21:35.288Z,1012.67
2019-06-20T10:22:35.377Z,1012.72
2019-06-20T10:23:35.600Z,1012.7
2019-06-20T10:25:05.678Z,1012.67
2019-06-20T10:27:56.017Z,1012.68
2019-06-20T10:29:26.213Z,1012.69
2019-06-20T10:30:26.845Z,1012.7
2019-06-20T10:31:36.563Z,1012.71
2019-06-20T10:32:36.571Z,1012.67
2019-06-20T10:33:36.617Z,1012.62
2019-06-20T10:35:06.721Z,1012.67
2019-06-20T10:36:07.141Z,1012.79
2019-06-20T10:37:07.582Z,1012.72
2019-06-20T10:38:07.562Z,1012.72
2019-06-20T10:40:59.785Z,1012.64
2019-06-20T10:41:58.180Z,1012.68
2019-06-20T10:42:58.182Z,1012.68
2019-06-20T10:47:38.853Z,1012.56
2019-06-20T10:49:09.106Z,1012.63
2019-06-20T10:50:09.124Z,1012.68
2019-06-20T10:54:09.702Z,1012.68
2019-06-20T10:55:09.740Z,1012.68
2019-06-20T10:56:09.930Z,1012.66
2019-06-20T11:00:00.672Z,1012.64
2019-06-20T11:01:04.093Z,1012.58
2019-06-20T11:02:14.201Z,1012.63
2019-06-20T11:03:14.401Z,1012.56
2019-06-20T11:04:45.639Z,1012.59
2019-06-20T11:05:24.728Z,1012.5
2019-06-20T11:06:34.937Z,1012.65
2019-06-20T11:07:35.153Z,1012.59
2019-06-20T11:09:05.173Z,1012.56
2019-06-20T11:10:15.395Z,1012.56
2019-06-20T11:11:15.495Z,1012.54
2019-06-20T11:12:15.534Z,1012.53
2019-06-20T11:13:15.703Z,1012.56
2019-06-20T11:14:46.194Z,1012.56
2019-06-20T11:15:25.892Z,1012.48
2019-06-20T11:16:35.937Z,1012.49
2019-06-20T11:17:38.532Z,1012.51
2019-06-20T11:18:37.344Z,1012.51
2019-06-20T11:19:38.084Z,1012.44
2019-06-20T11:20:37.794Z,1012.47
2019-06-20T11:21:37.982Z,1012.48
2019-06-20T11:22:38.331Z,1012.52
2019-06-20T11:24:07.192Z,1012.55
2019-06-20T11:25:19.238Z,1012.46
2019-06-20T11:26:17.436Z,1012.5
2019-06-20T11:27:17.492Z,1012.46
2019-06-20T11:28:17.632Z,1012.46
2019-06-20T11:29:47.842Z,1012.5
2019-06-20T11:31:41.715Z,1012.43
2019-06-20T11:32:39.402Z,1012.4
2019-06-20T11:34:08.799Z,1012.42
2019-06-20T11:35:19.347Z,1012.4
2019-06-20T11:36:19.124Z,1012.41
2019-06-20T11:37:19.254Z,1012.41
2019-06-20T11:38:19.315Z,1012.42
2019-06-20T11:39:51.260Z,1012.5
2019-06-20T11:41:39.643Z,1012.49
2019-06-20T11:42:39.907Z,1012.49
2019-06-20T11:44:09.840Z,1012.53
2019-06-20T11:45:09.902Z,1012.5
2019-06-20T11:46:09.913Z,1012.49
2019-06-20T11:47:09.981Z,1012.48
2019-06-20T11:48:10.019Z,1012.5
2019-06-20T11:49:40.423Z,1012.52
2019-06-20T11:50:20.283Z,1012.4
2019-06-20T11:51:20.396Z,1012.35
2019-06-20T11:52:20.646Z,1012.39
2019-06-20T11:53:20.845Z,1012.36
2019-06-20T11:54:51.055Z,1012.32
2019-06-20T11:56:51.230Z,1012.38
2019-06-20T11:57:51.338Z,1012.25
2019-06-20T11:59:21.332Z,1012.19
2019-06-20T12:00:25.885Z,1012.29
2019-06-20T12:01:32.677Z,1012.29
2019-06-20T12:02:25.777Z,1012.34
2019-06-20T12:03:25.871Z,1012.39
2019-06-20T12:04:56.130Z,1012.37
2019-06-20T12:05:36.215Z,1012.36
2019-06-20T12:06:47.112Z,1012.31
2019-06-20T12:07:47.754Z,1012.24
2019-06-20T12:09:16.685Z,1012.26
2019-06-20T12:10:16.787Z,1012.24
2019-06-20T12:11:17.023Z,1012.21
2019-06-20T12:12:17.204Z,1012.26
2019-06-20T12:15:38.017Z,1012.16
2019-06-20T12:16:48.612Z,1012.17
2019-06-20T12:17:48.839Z,1012.16
2019-06-20T12:19:17.620Z,1012.17
2019-06-20T12:20:17.767Z,1012.16
2019-06-20T12:24:18.311Z,1012.22
2019-06-20T12:25:18.527Z,1012.18
2019-06-20T12:26:18.668Z,1012.16
2019-06-20T12:27:18.681Z,1012.22
2019-06-20T12:28:18.949Z,1012.13
2019-06-20T12:30:43.554Z,1012.12
2019-06-20T12:31:53.377Z,1012.15
2019-06-20T12:32:53.552Z,1012.1
2019-06-20T12:34:23.680Z,1012.02
2019-06-20T12:35:23.812Z,1011.96
2019-06-20T12:36:23.976Z,1011.97
2019-06-20T12:37:24.076Z,1011.99
2019-06-20T12:38:24.075Z,1011.92
2019-06-20T12:39:54.100Z,1011.97
2019-06-20T12:40:34.177Z,1011.95
2019-06-20T12:41:54.307Z,1011.94
2019-06-20T12:42:54.424Z,1011.88
2019-06-20T12:44:24.775Z,1012
2019-06-20T12:45:25.001Z,1012.04
2019-06-20T12:46:24.819Z,1012.08
2019-06-20T12:47:25.125Z,1012.1
2019-06-20T12:48:25.152Z,1012.11
2019-06-20T12:49:55.135Z,1012.09
2019-06-20T12:50:35.280Z,1012.1
2019-06-20T12:51:55.614Z,1012.01
2019-06-20T12:52:55.402Z,1012.05
2019-06-20T12:54:25.473Z,1011.98
2019-06-20T12:55:25.525Z,1011.96
2019-06-20T12:56:25.559Z,1011.98
2019-06-20T12:57:25.719Z,1011.95
2019-06-20T12:58:25.857Z,1011.96
2019-06-20T12:59:56.114Z,1011.89
2019-06-20T13:01:39.163Z,1012
2019-06-20T13:02:36.583Z,1011.81
2019-06-20T13:04:16.544Z,1011.88
2019-06-20T13:05:26.657Z,1011.78
2019-06-20T13:06:26.847Z,1011.78
2019-06-20T13:07:26.934Z,1011.8
2019-06-20T13:08:57.013Z,1011.81
2019-06-20T13:09:57.197Z,1011.81
2019-06-20T13:10:38.619Z,1011.79
2019-06-20T13:11:47.490Z,1011.77
2019-06-20T13:12:57.325Z,1011.77
2019-06-20T13:14:27.616Z,1011.66
2019-06-20T13:15:27.836Z,1011.67
2019-06-20T13:16:28.005Z,1011.76
2019-06-20T13:17:28.013Z,1011.64
2019-06-20T13:18:58.574Z,1011.65
2019-06-20T13:19:39.021Z,1011.63
2019-06-20T13:20:48.559Z,1011.58
2019-06-20T13:21:48.640Z,1011.56
2019-06-20T13:22:49.465Z,1011.54
2019-06-20T13:24:18.630Z,1011.52
2019-06-20T13:25:28.869Z,1011.55
2019-06-20T13:26:29.185Z,1011.55
2019-06-20T13:27:29.377Z,1011.49
2019-06-20T13:29:03.938Z,1011.58
2019-06-20T13:30:55.199Z,1011.58
2019-06-20T13:39:16.077Z,1011.36
2019-06-20T13:40:26.217Z,1011.32
2019-06-20T13:41:26.312Z,1011.27
2019-06-20T13:42:26.504Z,1011.26
2019-06-20T13:43:56.630Z,1011.27
2019-06-20T13:47:57.039Z,1011.21
2019-06-20T13:49:27.113Z,1011.09
2019-06-20T13:50:27.275Z,1011.1
2019-06-20T13:51:27.200Z,1011.1
2019-06-20T13:52:27.278Z,1011.11
2019-06-20T13:53:57.394Z,1011.11
2019-06-20T13:55:47.761Z,1011.08
2019-06-20T13:56:57.817Z,1011.04
2019-06-20T13:57:57.991Z,1011.04
2019-06-20T13:59:28.091Z,1011.02
2019-06-20T14:00:28.385Z,1011.1
2019-06-20T14:01:28.453Z,1011.03
2019-06-20T14:02:28.572Z,1011.08
2019-06-20T14:03:58.872Z,1011.04
2019-06-20T14:05:59.326Z,1010.98
2019-06-20T14:06:59.379Z,1011.03
2019-06-20T14:07:59.421Z,1011.02
2019-06-20T14:09:29.589Z,1010.97
2019-06-20T14:10:29.668Z,1010.95
2019-06-20T14:11:29.780Z,1010.94
2019-06-20T14:12:29.942Z,1010.99
2019-06-20T14:14:50.411Z,1010.83
2019-06-20T14:16:00.597Z,1010.9
2019-06-20T14:17:00.718Z,1010.87
2019-06-20T14:18:00.487Z,1010.87
2019-06-20T14:19:30.809Z,1010.84
2019-06-20T14:20:31.047Z,1010.87
2019-06-20T14:21:31.209Z,1010.79
2019-06-20T14:22:31.255Z,1010.9
2019-06-20T14:24:01.393Z,1010.8
2019-06-20T14:26:01.658Z,1010.83
2019-06-20T14:27:02.373Z,1010.83
2019-06-20T14:28:02.177Z,1010.86
2019-06-20T14:29:32.328Z,1010.76
2019-06-20T14:30:33.476Z,1010.82
2019-06-20T14:31:33.428Z,1010.84
2019-06-20T14:32:33.572Z,1010.8
2019-06-20T14:34:03.632Z,1010.81
2019-06-20T14:34:45.324Z,1010.81
2019-06-20T14:36:04.106Z,1010.81
2019-06-20T14:37:04.166Z,1010.83
2019-06-20T14:38:04.209Z,1010.85
2019-06-20T14:39:34.474Z,1010.84
2019-06-20T14:40:34.580Z,1010.85
2019-06-20T14:41:34.785Z,1010.86
2019-06-20T14:42:34.970Z,1010.78
2019-06-20T14:44:05.091Z,1010.84
2019-06-20T14:44:45.918Z,1010.8
2019-06-20T14:46:05.399Z,1010.82
2019-06-20T14:47:06.370Z,1010.82
2019-06-20T14:48:05.547Z,1010.83
2019-06-20T14:49:35.896Z,1010.85
2019-06-20T14:50:35.833Z,1010.81
2019-06-20T14:51:35.950Z,1010.81
2019-06-20T14:52:36.206Z,1010.79
2019-06-20T14:54:06.288Z,1010.76
2019-06-20T14:54:47.482Z,1010.81
2019-06-20T14:56:06.628Z,1010.81
2019-06-20T14:57:06.645Z,1010.84
2019-06-20T14:58:06.546Z,1010.79
2019-06-20T14:59:36.739Z,1010.84
2019-06-20T15:04:30.695Z,1010.78
2019-06-20T15:05:30.666Z,1010.72
2019-06-20T15:06:30.844Z,1010.67
2019-06-20T15:07:30.991Z,1010.71
2019-06-20T15:09:05.717Z,1010.74
2019-06-20T15:12:42.408Z,1010.59
2019-06-20T15:14:32.357Z,1010.56
2019-06-20T15:15:42.423Z,1010.62
2019-06-20T15:16:42.619Z,1010.58
2019-06-20T15:17:32.716Z,1010.46
2019-06-20T15:19:03.099Z,1010.47
2019-06-20T15:19:42.931Z,1010.49
2019-06-20T15:20:43.198Z,1010.58
2019-06-20T15:21:43.206Z,1010.47
2019-06-20T15:22:43.404Z,1010.49
2019-06-20T15:24:13.825Z,1010.4
2019-06-20T15:24:55.331Z,1010.45
2019-06-20T15:26:03.858Z,1010.44
2019-06-20T15:27:04.035Z,1010.39
2019-06-20T15:28:04.190Z,1010.4
2019-06-20T15:29:34.391Z,1010.34
2019-06-20T15:30:39.847Z,1010.35
2019-06-20T15:31:41.944Z,1010.35
2019-06-20T15:32:53.225Z,1010.26
2019-06-20T15:34:10.898Z,1010.29
2019-06-20T15:34:51.538Z,1010.29
2019-06-20T15:36:00.679Z,1010.28
2019-06-20T15:37:01.016Z,1010.21
2019-06-20T15:38:01.341Z,1010.21
2019-06-20T15:39:31.195Z,1010.22
2019-06-20T15:40:41.280Z,1010.17
2019-06-20T15:41:41.292Z,1010.23
2019-06-20T15:42:41.688Z,1010.18
2019-06-20T15:44:11.467Z,1010.15
2019-06-20T15:46:11.815Z,1010.17
2019-06-20T15:47:11.861Z,1010.23
2019-06-20T15:48:42.032Z,1010.2